createdAt,value
2022-10-07T00:03:09.216Z,5.80
2022-10-07T00:08:12.626Z,5.80
2022-10-07T00:13:15.434Z,5.90
2022-10-07T00:18:18.438Z,5.90
2022-10-07T00:23:21.238Z,5.40
2022-10-07T00:28:24.152Z,6.00
2022-10-07T00:33:30.321Z,5.40
2022-10-07T00:38:32.995Z,5.80
2022-10-07T00:43:35.886Z,5.20
2022-10-07T00:48:39.845Z,4.80
2022-10-07T00:53:46.587Z,6.30
2022-10-07T00:58:50.502Z,5.30
2022-10-07T01:03:54.315Z,5.70
2022-10-07T01:08:57.715Z,6.50
2022-10-07T01:14:16.985Z,5.40
2022-10-07T01:19:45.810Z,4.20
2022-10-07T01:25:03.557Z,5.00
2022-10-07T01:30:08.136Z,4.50
2022-10-07T01:35:20.883Z,4.30
2022-10-07T01:40:28.353Z,4.40
2022-10-07T01:45:35.549Z,5.10
2022-10-07T01:50:39.377Z,5.50
2022-10-07T01:56:16.172Z,5.20
2022-10-07T02:01:39.695Z,5.70
2022-10-07T02:06:57.594Z,4.90
2022-10-07T02:12:10.311Z,5.20
2022-10-07T02:17:17.921Z,5.30
2022-10-07T02:22:24.551Z,5.50
2022-10-07T02:27:32.986Z,6.20
2022-10-07T02:32:39.369Z,6.10
2022-10-07T02:37:43.976Z,4.90
2022-10-07T02:43:06.833Z,6.30
2022-10-07T02:48:24.616Z,5.70
2022-10-07T02:53:29.899Z,5.80
2022-10-07T02:58:34.240Z,5.10
2022-10-07T03:03:37.086Z,5.60
2022-10-07T03:08:41.957Z,5.50
2022-10-07T03:13:46.018Z,6.00
2022-10-07T03:18:49.428Z,5.90
2022-10-07T03:23:53.360Z,5.80
2022-10-07T03:28:56.061Z,5.80
2022-10-07T03:33:59.687Z,5.60
2022-10-07T03:39:03.913Z,5.50
2022-10-07T03:44:06.581Z,5.50
2022-10-07T03:49:09.307Z,6.10
2022-10-07T03:54:12.202Z,6.50
2022-10-07T03:59:14.809Z,7.00
2022-10-07T04:04:17.607Z,6.00
2022-10-07T04:09:20.307Z,5.80
2022-10-07T04:14:23.158Z,6.60
2022-10-07T04:19:26.765Z,6.70
2022-10-07T04:24:29.527Z,8.20
2022-10-07T04:29:38.152Z,7.50
2022-10-07T04:34:41.795Z,7.10
2022-10-07T04:40:00.236Z,6.50
2022-10-07T04:45:04.452Z,6.90
2022-10-07T04:50:08.181Z,7.10
2022-10-07T04:55:14.417Z,6.60
2022-10-07T05:00:17.040Z,6.60
2022-10-07T05:05:20.095Z,6.40
2022-10-07T05:10:22.799Z,6.90
2022-10-07T05:15:25.492Z,6.30
2022-10-07T05:20:28.708Z,7.50
2022-10-07T05:25:31.392Z,7.00
2022-10-07T05:30:34.066Z,5.90
2022-10-07T05:35:36.799Z,6.80
2022-10-07T05:40:39.414Z,6.90
2022-10-07T05:45:42.445Z,6.50
2022-10-07T05:50:47.821Z,6.50
2022-10-07T05:55:51.633Z,5.70
2022-10-07T06:01:03.721Z,6.60
2022-10-07T06:06:09.109Z,5.20
2022-10-07T06:11:32.580Z,6.90
2022-10-07T06:16:35.293Z,6.30
2022-10-07T06:21:38.049Z,6.10
2022-10-07T06:26:42.287Z,6.00
2022-10-07T06:31:46.522Z,5.00
2022-10-07T06:36:49.213Z,5.40
2022-10-07T06:41:54.767Z,7.00
2022-10-07T06:46:57.751Z,6.00
2022-10-07T06:52:00.709Z,6.90
2022-10-07T06:57:11.561Z,5.90
2022-10-07T07:02:27.009Z,5.10
2022-10-07T07:07:30.203Z,5.20
2022-10-07T07:12:33.621Z,6.50
2022-10-07T07:17:36.421Z,6.20
2022-10-07T07:22:39.477Z,5.80
2022-10-07T07:27:42.510Z,5.70
2022-10-07T07:32:46.086Z,5.40
2022-10-07T07:37:48.919Z,5.40
2022-10-07T07:42:55.085Z,4.50
2022-10-07T07:47:59.259Z,4.60
2022-10-07T07:53:04.549Z,4.80
2022-10-07T07:58:11.640Z,4.60
2022-10-07T08:03:14.621Z,4.60
2022-10-07T08:08:17.321Z,4.10
2022-10-07T08:13:20.074Z,4.00
2022-10-07T08:18:22.685Z,4.20
2022-10-07T08:23:28.444Z,4.80
2022-10-07T08:28:32.005Z,4.50
2022-10-07T08:33:40.760Z,3.90
2022-10-07T08:38:48.223Z,3.90
2022-10-07T08:43:51.908Z,4.80
2022-10-07T08:49:17.851Z,5.00
2022-10-07T08:54:28.398Z,4.80
2022-10-07T09:00:07.124Z,4.00
2022-10-07T09:05:19.848Z,4.20
2022-10-07T09:10:37.423Z,3.90
2022-10-07T09:16:04.130Z,4.20
2022-10-07T09:21:34.459Z,3.90
2022-10-07T09:26:37.243Z,4.10
2022-10-07T09:31:40.186Z,4.10
2022-10-07T09:37:13.084Z,3.90
2022-10-07T09:42:35.004Z,3.90
2022-10-07T09:47:40.574Z,4.30
2022-10-07T09:52:55.896Z,4.10
2022-10-07T09:58:01.190Z,3.60
2022-10-07T10:03:07.639Z,3.70
2022-10-07T10:08:13.534Z,3.60
2022-10-07T10:13:39.268Z,3.60
2022-10-07T10:18:53.424Z,3.00
2022-10-07T10:23:59.422Z,3.00
2022-10-07T10:29:17.086Z,3.30
2022-10-07T10:34:42.855Z,3.50
2022-10-07T10:39:52.753Z,3.00
2022-10-07T10:45:30.337Z,3.10
2022-10-07T10:51:06.117Z,2.70
2022-10-07T10:56:38.899Z,3.00
2022-10-07T11:01:44.383Z,2.90
2022-10-07T11:06:57.678Z,2.30
2022-10-07T11:12:04.970Z,2.50
2022-10-07T11:17:08.319Z,2.40
2022-10-07T11:22:20.210Z,2.80
2022-10-07T11:27:34.666Z,2.60
2022-10-07T11:33:06.240Z,2.50
2022-10-07T11:38:14.676Z,2.60
2022-10-07T11:43:38.450Z,2.90
2022-10-07T11:48:53.217Z,3.80
2022-10-07T11:54:01.126Z,2.70
2022-10-07T11:59:06.917Z,3.00
2022-10-07T12:04:37.150Z,2.30
2022-10-07T12:09:59.256Z,2.50
2022-10-07T12:15:04.527Z,2.70
2022-10-07T12:20:37.202Z,2.60
2022-10-07T12:25:48.073Z,2.20
2022-10-07T12:30:53.557Z,2.50
2022-10-07T12:35:56.308Z,2.90
2022-10-07T12:41:12.050Z,2.40
2022-10-07T12:46:19.995Z,2.50
2022-10-07T12:51:28.310Z,2.40
2022-10-07T12:56:31.349Z,2.40
2022-10-07T13:02:10.493Z,6.20
2022-10-07T13:07:40.859Z,2.70
2022-10-07T13:13:01.300Z,2.60
2022-10-07T13:18:38.008Z,2.60
2022-10-07T13:23:40.723Z,2.80
2022-10-07T13:28:53.694Z,2.60
2022-10-07T13:33:59.106Z,2.60
2022-10-07T13:39:13.177Z,2.70
2022-10-07T13:44:19.234Z,2.80
2022-10-07T13:49:27.683Z,3.00
2022-10-07T13:54:33.115Z,2.90
2022-10-07T13:59:36.765Z,2.90
2022-10-07T14:05:00.510Z,2.80
2022-10-07T14:10:09.743Z,2.50
2022-10-07T14:15:18.818Z,2.90
2022-10-07T14:20:29.342Z,3.30
2022-10-07T14:25:49.643Z,3.00
2022-10-07T14:31:23.405Z,4.10
2022-10-07T14:36:26.511Z,3.10
2022-10-07T14:41:31.553Z,3.20
2022-10-07T14:46:34.501Z,3.20
2022-10-07T14:51:37.543Z,3.50
2022-10-07T14:56:40.249Z,3.40
2022-10-07T15:01:42.937Z,3.00
2022-10-07T15:06:50.614Z,2.90
2022-10-07T15:11:53.771Z,4.20
2022-10-07T15:16:57.703Z,2.90
2022-10-07T15:22:01.422Z,3.30
2022-10-07T15:27:06.578Z,3.20
2022-10-07T15:32:09.379Z,4.10
2022-10-07T15:37:12.078Z,4.00
2022-10-07T15:42:15.799Z,3.70
2022-10-07T15:47:18.740Z,4.40
2022-10-07T15:52:21.405Z,4.80
2022-10-07T15:57:24.500Z,4.00
2022-10-07T16:02:27.224Z,3.90
2022-10-07T16:07:30.420Z,5.00
2022-10-07T16:12:33.055Z,4.60
2022-10-07T16:17:35.717Z,4.70
2022-10-07T16:22:38.334Z,5.00
2022-10-07T16:27:59.772Z,5.30
2022-10-07T16:33:02.554Z,5.00
2022-10-07T16:38:05.555Z,5.90
2022-10-07T16:43:08.184Z,4.90
2022-10-07T16:48:10.833Z,4.50
2022-10-07T16:53:13.650Z,3.80
2022-10-07T16:58:16.543Z,4.40
2022-10-07T17:03:21.002Z,5.20
2022-10-07T17:08:24.128Z,5.10
2022-10-07T17:13:28.782Z,5.60
2022-10-07T17:18:33.933Z,5.50
2022-10-07T17:23:36.599Z,5.50
2022-10-07T17:28:39.412Z,5.90
2022-10-07T17:33:43.625Z,6.30
2022-10-07T17:38:46.333Z,5.60
2022-10-07T17:43:52.310Z,5.30
2022-10-07T17:48:57.474Z,5.80
2022-10-07T17:54:01.803Z,5.10
2022-10-07T17:59:05.559Z,5.60
2022-10-07T18:04:13.092Z,5.60
2022-10-07T18:09:18.685Z,6.30
2022-10-07T18:14:40.758Z,6.50
2022-10-07T18:19:45.201Z,6.10
2022-10-07T18:24:47.899Z,6.50
2022-10-07T18:29:51.006Z,6.40
2022-10-07T18:34:53.689Z,7.10
2022-10-07T18:39:56.498Z,6.80
2022-10-07T18:44:59.131Z,7.00
2022-10-07T18:50:01.803Z,7.40
2022-10-07T18:55:05.330Z,8.40
2022-10-07T19:00:08.926Z,9.00
2022-10-07T19:05:11.611Z,8.80
2022-10-07T19:10:14.422Z,8.70
2022-10-07T19:15:17.234Z,11.20
2022-10-07T19:20:19.852Z,11.20
2022-10-07T19:25:41.269Z,11.80
2022-10-07T19:30:45.311Z,10.60
2022-10-07T19:35:55.577Z,9.80
2022-10-07T19:40:58.267Z,10.00
2022-10-07T19:46:02.529Z,10.00
2022-10-07T19:51:08.781Z,10.40
2022-10-07T19:56:16.518Z,8.50
2022-10-07T20:01:21.981Z,7.70
2022-10-07T20:06:25.575Z,8.60
2022-10-07T20:11:28.404Z,8.80
2022-10-07T20:16:31.916Z,11.00
2022-10-07T20:21:37.130Z,10.40
2022-10-07T20:26:41.300Z,10.30
2022-10-07T20:31:45.023Z,9.10
2022-10-07T20:36:50.400Z,10.30
2022-10-07T20:42:12.548Z,10.10
2022-10-07T20:47:16.162Z,8.80
2022-10-07T20:52:24.678Z,8.80
2022-10-07T20:57:33.251Z,9.20
2022-10-07T21:02:36.081Z,11.20
2022-10-07T21:07:39.746Z,10.90
2022-10-07T21:12:43.014Z,11.60
2022-10-07T21:17:48.838Z,12.70
2022-10-07T21:22:54.294Z,12.40
2022-10-07T21:27:56.970Z,11.80
2022-10-07T21:32:59.633Z,12.00
2022-10-07T21:38:02.304Z,10.70
2022-10-07T21:43:04.957Z,10.50
2022-10-07T21:48:07.630Z,9.50
2022-10-07T21:53:10.788Z,10.20
2022-10-07T21:58:15.253Z,10.20
2022-10-07T22:03:18.245Z,9.80
2022-10-07T22:08:36.201Z,9.30
2022-10-07T22:13:45.642Z,9.50
2022-10-07T22:18:50.896Z,9.20
2022-10-07T22:23:58.868Z,8.60
2022-10-07T22:29:01.548Z,9.50
2022-10-07T22:34:05.914Z,9.00
2022-10-07T22:39:08.571Z,9.50
2022-10-07T22:44:11.172Z,10.20
2022-10-07T22:49:15.095Z,9.70
2022-10-07T22:54:17.882Z,8.70
2022-10-07T22:59:21.301Z,8.10
2022-10-07T23:04:24.116Z,8.50
2022-10-07T23:09:26.711Z,9.00
2022-10-07T23:14:29.408Z,9.10
2022-10-07T23:19:32.104Z,9.60
2022-10-07T23:24:36.149Z,9.50
2022-10-07T23:29:38.832Z,9.10
2022-10-07T23:34:41.575Z,9.10
2022-10-07T23:39:44.220Z,8.80
2022-10-07T23:44:46.844Z,9.60
2022-10-07T23:49:49.504Z,8.90
2022-10-07T23:54:52.187Z,8.70
2022-10-07T23:59:54.822Z,10.70
